Time;durP1;ratioP1;P1;durP2;ratioP2;P2;SDS_P1;SDS_P2;PMS_P1;PMS_P2;Temp;Humidity;BMP_temperature;BMP_pressure;BME280_temperature;BME280_humidity;BME280_pressure;Samples;Min_cycle;Max_cycle;Signal;HPM_P1;HPM_P2
2022/10/06 00:02:26;;;;;;;11.32;7.40;;;9.90;99.90;;;;;;5232034;28;20032;-75
2022/10/06 00:04:57;;;;;;;12.20;6.68;;;9.90;99.90;;;;;;5209276;28;20056;-76
2022/10/06 00:07:31;;;;;;;10.05;6.30;;;10.00;99.90;;;;;;5219283;28;20042;-76
2022/10/06 00:10:05;;;;;;;;;;;10.00;99.90;;;;;;5234047;28;20034;-75
2022/10/06 00:12:42;;;;;;;12.73;6.95;;;10.00;99.90;;;;;;5216126;28;19924;-76
2022/10/06 00:15:17;;;;;;;8.02;6.05;;;9.90;99.90;;;;;;5215726;28;20409;-75
2022/10/06 00:17:49;;;;;;;7.53;5.72;;;10.00;99.90;;;;;;5198911;28;20112;-75
2022/10/06 00:20:23;;;;;;;9.60;6.13;;;9.90;99.90;;;;;;5213218;28;20037;-76
2022/10/06 00:22:58;;;;;;;12.30;7.20;;;10.00;99.90;;;;;;5198541;28;20028;-75
2022/10/06 00:25:29;;;;;;;9.65;7.30;;;10.10;99.90;;;;;;5215502;28;20472;-76
2022/10/06 00:28:00;;;;;;;11.43;6.68;;;10.10;99.90;;;;;;5215909;28;20016;-77
2022/10/06 00:30:32;;;;;;;9.05;6.88;;;10.00;99.90;;;;;;5197348;28;20064;-76
2022/10/06 00:33:03;;;;;;;11.93;7.20;;;10.00;99.90;;;;;;5222931;28;20029;-76
2022/10/06 00:35:37;;;;;;;10.48;7.75;;;10.10;99.90;;;;;;5207856;28;20561;-77
2022/10/06 00:38:11;;;;;;;12.77;7.95;;;10.10;99.90;;;;;;5215354;28;20035;-77
2022/10/06 00:40:45;;;;;;;10.55;7.57;;;10.20;99.90;;;;;;5198301;28;20483;-75
2022/10/06 00:43:34;;;;;;;10.33;7.57;;;10.20;99.90;;;;;;5215315;28;20045;-75
2022/10/06 00:46:16;;;;;;;9.00;6.95;;;10.10;99.90;;;;;;5214670;28;20039;-75
2022/10/06 00:48:52;;;;;;;11.10;8.00;;;10.10;99.90;;;;;;5214936;28;20041;-75
2022/10/06 00:51:23;;;;;;;9.85;7.68;;;10.20;99.90;;;;;;5215668;28;20013;-75
2022/10/06 00:53:56;;;;;;;11.05;7.35;;;10.20;99.90;;;;;;5215322;28;20031;-75
2022/10/06 00:56:28;;;;;;;12.27;7.25;;;10.20;99.90;;;;;;5197690;28;20035;-77
2022/10/06 00:59:00;;;;;;;12.65;7.80;;;10.10;99.90;;;;;;5214615;28;20021;-76
2022/10/06 01:01:35;;;;;;;11.70;7.60;;;10.00;99.90;;;;;;5185047;28;20033;-75
2022/10/06 01:04:11;;;;;;;10.63;7.68;;;9.90;99.90;;;;;;5232361;28;20111;-75
2022/10/06 01:06:54;;;;;;;13.40;8.50;;;9.90;99.90;;;;;;5186512;28;20063;-75
2022/10/06 01:09:28;;;;;;;9.52;7.05;;;9.90;99.90;;;;;;5195695;28;20029;-75
2022/10/06 01:12:03;;;;;;;10.32;6.90;;;9.90;99.90;;;;;;5182354;28;20040;-75
2022/10/06 01:14:39;;;;;;;13.57;8.30;;;9.90;99.90;;;;;;5216958;28;20407;-75
2022/10/06 01:17:28;;;;;;;10.02;7.88;;;9.90;99.90;;;;;;5198583;28;20040;-77
2022/10/06 01:20:14;;;;;;;13.18;8.43;;;9.70;99.90;;;;;;5217285;28;20013;-75
2022/10/06 01:22:56;;;;;;;10.50;7.32;;;9.70;99.90;;;;;;5217611;28;20027;-75
2022/10/06 01:25:28;;;;;;;11.40;7.75;;;9.70;99.90;;;;;;5180380;28;20052;-75
2022/10/06 01:28:02;;;;;;;12.77;7.13;;;9.60;99.90;;;;;;5201226;28;20027;-76
2022/10/06 01:30:49;;;;;;;10.05;7.40;;;9.60;99.90;;;;;;5220229;28;20053;-75
2022/10/06 01:33:22;;;;;;;12.30;7.78;;;9.60;99.90;;;;;;5230046;28;20044;-75
2022/10/06 01:35:59;;;;;;;13.38;7.38;;;9.50;99.90;;;;;;5203931;28;20029;-75
2022/10/06 01:38:30;;;;;;;10.45;7.32;;;9.40;99.90;;;;;;5221984;28;20521;-77
2022/10/06 01:41:06;;;;;;;12.82;7.68;;;9.40;99.90;;;;;;5220762;28;20439;-76
2022/10/06 01:43:37;;;;;;;11.40;7.85;;;9.40;99.90;;;;;;5196186;28;20049;-75
2022/10/06 01:46:08;;;;;;;9.80;7.45;;;9.30;99.90;;;;;;5214064;28;20045;-75
2022/10/06 01:48:41;;;;;;;11.98;7.50;;;9.30;99.90;;;;;;5198594;28;20033;-75
2022/10/06 01:51:15;;;;;;;14.43;8.10;;;9.30;99.90;;;;;;5177145;28;20184;-75
2022/10/06 01:53:46;;;;;;;10.07;6.93;;;9.30;99.90;;;;;;5205108;28;20043;-75
2022/10/06 01:56:20;;;;;;;11.70;7.97;;;9.20;99.90;;;;;;5222393;28;20033;-74
2022/10/06 01:58:51;;;;;;;11.55;7.78;;;9.10;99.90;;;;;;5221847;28;20360;-75
2022/10/06 02:01:27;;;;;;;13.90;9.00;;;9.20;99.90;;;;;;5206209;28;20032;-75
2022/10/06 02:03:58;;;;;;;11.25;8.15;;;9.20;99.90;;;;;;5194103;28;20020;-74
2022/10/06 02:06:29;;;;;;;10.25;7.22;;;9.20;99.90;;;;;;5209756;28;20048;-75
2022/10/06 02:09:01;;;;;;;11.75;7.75;;;9.30;99.90;;;;;;5199057;28;20242;-75
2022/10/06 02:11:33;;;;;;;11.23;7.40;;;9.30;99.90;;;;;;5203062;28;20031;-75
2022/10/06 02:14:04;;;;;;;12.32;8.00;;;9.30;99.90;;;;;;5201316;28;20534;-75
2022/10/06 02:16:35;;;;;;;13.73;8.80;;;9.30;99.90;;;;;;5204694;28;20045;-76
2022/10/06 02:19:08;;;;;;;9.93;7.47;;;9.30;99.90;;;;;;5205000;28;20310;-76
2022/10/06 02:21:42;;;;;;;11.30;7.30;;;9.20;99.90;;;;;;5219496;28;20027;-75
2022/10/06 02:24:13;;;;;;;15.32;7.88;;;9.10;99.90;;;;;;5201869;28;20522;-77
2022/10/06 02:26:44;;;;;;;9.40;6.75;;;9.20;99.90;;;;;;5185175;28;20033;-75
2022/10/06 02:29:15;;;;;;;9.93;8.10;;;9.20;99.90;;;;;;5219811;28;20027;-77
2022/10/06 02:31:48;;;;;;;14.02;8.40;;;9.30;99.90;;;;;;5203370;28;20028;-75
2022/10/06 02:34:22;;;;;;;12.90;7.80;;;9.30;99.90;;;;;;5241050;28;20023;-77
2022/10/06 02:36:53;;;;;;;12.40;8.07;;;9.40;99.90;;;;;;5225114;28;20039;-76
2022/10/06 02:39:27;;;;;;;10.63;7.30;;;9.30;99.90;;;;;;5240919;28;20032;-77
2022/10/06 02:41:58;;;;;;;12.32;8.10;;;9.20;99.90;;;;;;5192831;28;20037;-77
2022/10/06 02:44:32;;;;;;;12.43;6.78;;;9.10;99.90;;;;;;5206222;28;20059;-76
2022/10/06 02:47:03;;;;;;;10.27;7.30;;;9.10;99.90;;;;;;5224845;28;20051;-75
2022/10/06 02:49:34;;;;;;;10.63;7.60;;;8.90;99.90;;;;;;5192377;28;20033;-75
2022/10/06 02:52:06;;;;;;;10.93;7.15;;;9.00;99.90;;;;;;5207031;28;20489;-75
2022/10/06 02:54:37;;;;;;;10.80;6.78;;;9.00;99.90;;;;;;5209355;28;20306;-75
2022/10/06 02:57:11;;;;;;;11.02;7.38;;;8.90;99.90;;;;;;5239259;28;20029;-77
2022/10/06 02:59:44;;;;;;;8.88;6.07;;;8.90;99.90;;;;;;5201840;28;20489;-77
2022/10/06 03:02:15;;;;;;;9.40;7.43;;;8.80;99.90;;;;;;5221474;28;20036;-77
2022/10/06 03:04:47;;;;;;;9.38;6.75;;;8.90;99.90;;;;;;5231822;28;20562;-77
2022/10/06 03:07:20;;;;;;;10.45;7.25;;;8.80;99.90;;;;;;5240309;28;20063;-75
2022/10/06 03:09:51;;;;;;;9.45;7.03;;;8.80;99.90;;;;;;5235393;28;20586;-77
2022/10/06 03:12:22;;;;;;;10.98;7.32;;;8.80;99.90;;;;;;5223591;28;20026;-76
2022/10/06 03:14:56;;;;;;;13.50;7.07;;;8.80;99.90;;;;;;5222426;28;20038;-76
2022/10/06 03:17:27;;;;;;;11.70;7.75;;;8.80;99.90;;;;;;5218980;28;20043;-76
2022/10/06 03:19:59;;;;;;;10.95;7.78;;;8.80;99.90;;;;;;5210543;28;20037;-75
2022/10/06 03:22:30;;;;;;;12.57;7.75;;;8.70;99.90;;;;;;5195905;28;20481;-76
2022/10/06 03:25:02;;;;;;;9.25;7.22;;;8.70;99.90;;;;;;5197537;28;20044;-75
2022/10/06 03:27:36;;;;;;;12.55;7.78;;;8.70;99.90;;;;;;5177431;28;20024;-75
2022/10/06 03:30:12;;;;;;;11.40;6.95;;;8.60;99.90;;;;;;5209888;28;20027;-77
2022/10/06 03:32:43;;;;;;;11.40;6.75;;;8.60;99.90;;;;;;5222741;28;20024;-75
2022/10/06 03:35:15;;;;;;;9.85;6.90;;;8.50;99.90;;;;;;5238762;28;20029;-76
2022/10/06 03:37:49;;;;;;;11.07;7.05;;;8.50;99.90;;;;;;5221019;28;20527;-76
2022/10/06 03:40:23;;;;;;;8.48;7.10;;;8.40;99.90;;;;;;5221996;28;20013;-75
2022/10/06 03:42:54;;;;;;;11.35;7.20;;;8.40;99.90;;;;;;5217309;28;20040;-75
2022/10/06 03:45:26;;;;;;;13.02;6.78;;;8.30;99.90;;;;;;5212859;28;20475;-76
2022/10/06 03:47:59;;;;;;;9.75;6.63;;;8.40;99.90;;;;;;5216529;28;20067;-75
2022/10/06 03:50:30;;;;;;;8.48;6.50;;;8.40;99.90;;;;;;5216076;28;20375;-76
2022/10/06 03:53:02;;;;;;;12.07;6.97;;;8.50;99.90;;;;;;5200500;28;20037;-75
2022/10/06 03:55:33;;;;;;;15.35;8.75;;;8.60;99.90;;;;;;5179388;28;20044;-76
2022/10/06 03:58:06;;;;;;;13.95;7.07;;;8.70;99.90;;;;;;5196681;28;20025;-76
2022/10/06 04:00:37;;;;;;;9.75;6.38;;;8.70;99.90;;;;;;5213409;28;20039;-76
2022/10/06 04:03:11;;;;;;;10.82;7.18;;;8.70;99.90;;;;;;5223632;28;20512;-77
2022/10/06 04:05:55;;;;;;;9.57;7.05;;;8.60;99.90;;;;;;5227757;28;20058;-76
2022/10/06 04:08:30;;;;;;;9.13;6.53;;;8.60;99.90;;;;;;5237861;28;20211;-76
2022/10/06 04:11:10;;;;;;;12.02;6.65;;;8.50;99.90;;;;;;5191043;28;20029;-76
2022/10/06 04:13:42;;;;;;;10.35;6.90;;;8.70;99.90;;;;;;5224486;28;20036;-77
2022/10/06 04:16:19;;;;;;;10.93;7.03;;;8.80;99.90;;;;;;5186789;28;20043;-76
2022/10/06 04:18:52;;;;;;;11.25;6.25;;;8.80;99.90;;;;;;5219305;28;20029;-76
2022/10/06 04:21:24;;;;;;;9.50;6.97;;;8.80;99.90;;;;;;5219503;28;20032;-77
2022/10/06 04:24:00;;;;;;;9.95;7.43;;;8.80;99.90;;;;;;5222232;28;20025;-76
2022/10/06 04:26:34;;;;;;;12.15;7.18;;;8.80;99.90;;;;;;5204121;28;20497;-76
2022/10/06 04:29:07;;;;;;;;;;;8.80;99.90;;;;;;5210028;28;20066;-77
2022/10/06 04:31:40;;;;;;;9.40;6.75;;;8.80;99.90;;;;;;5178470;28;20225;-76
2022/10/06 04:34:14;;;;;;;10.85;7.07;;;8.80;99.90;;;;;;5218383;28;20260;-76
2022/10/06 04:36:45;;;;;;;9.48;6.82;;;8.80;99.90;;;;;;5198674;28;20040;-77
2022/10/06 04:39:19;;;;;;;9.15;7.00;;;8.80;99.90;;;;;;5206797;28;20041;-76
2022/10/06 04:41:52;;;;;;;9.40;6.85;;;8.70;99.90;;;;;;5215021;28;20348;-76
2022/10/06 04:44:24;;;;;;;8.63;6.75;;;8.60;99.90;;;;;;5198756;28;20029;-77
2022/10/06 04:46:59;;;;;;;9.95;6.70;;;8.50;99.90;;;;;;5179097;28;20033;-77
2022/10/06 04:49:30;;;;;;;17.95;7.90;;;8.50;99.90;;;;;;5194349;28;20563;-77
2022/10/06 04:52:04;;;;;;;11.43;6.82;;;8.50;99.90;;;;;;5215502;28;20031;-77
2022/10/06 04:54:35;;;;;;;13.40;7.68;;;8.50;99.90;;;;;;5215304;28;20033;-77
2022/10/06 04:57:07;;;;;;;10.15;7.20;;;8.50;99.90;;;;;;5211612;28;20045;-76
2022/10/06 05:02:30;;;;;;;10.13;7.00;;;8.40;99.90;;;;;;5208340;28;20044;-77
2022/10/06 05:05:04;;;;;;;11.70;7.25;;;8.40;99.90;;;;;;5208442;28;20495;-76
2022/10/06 05:07:36;;;;;;;9.45;6.45;;;8.40;99.90;;;;;;5189070;28;20035;-76
2022/10/06 05:10:07;;;;;;;9.00;6.53;;;8.40;99.90;;;;;;5214649;28;20032;-77
2022/10/06 05:12:41;;;;;;;8.38;6.20;;;8.50;99.90;;;;;;5190533;28;20227;-77
2022/10/06 05:15:14;;;;;;;9.65;6.82;;;8.50;99.90;;;;;;5204962;28;20370;-76
2022/10/06 05:17:45;;;;;;;8.18;5.93;;;8.60;99.90;;;;;;5226429;28;20322;-77
2022/10/06 05:20:21;;;;;;;8.20;6.00;;;8.60;99.90;;;;;;5224498;28;20017;-77
2022/10/06 05:22:52;;;;;;;7.82;6.25;;;8.60;99.90;;;;;;5206734;28;20203;-76
2022/10/06 05:25:24;;;;;;;9.80;6.22;;;8.60;99.90;;;;;;5229891;28;20023;-76
2022/10/06 05:27:55;;;;;;;8.50;6.15;;;8.60;99.90;;;;;;5181635;28;20048;-78
2022/10/06 05:30:26;;;;;;;8.13;6.10;;;8.50;99.90;;;;;;5215345;28;20467;-77
2022/10/06 05:32:59;;;;;;;8.13;6.05;;;8.50;99.90;;;;;;5219865;28;20023;-77
2022/10/06 05:35:31;;;;;;;8.73;6.43;;;8.50;99.90;;;;;;5222036;28;20396;-78
2022/10/06 05:38:02;;;;;;;11.00;8.57;;;8.60;99.90;;;;;;5178531;28;20047;-78
2022/10/06 05:40:33;;;;;;;13.20;9.05;;;8.70;99.90;;;;;;5224190;28;20334;-78
2022/10/06 05:43:04;;;;;;;11.98;8.98;;;8.80;99.90;;;;;;5216568;28;20341;-79
2022/10/06 05:45:35;;;;;;;11.85;8.02;;;8.90;99.90;;;;;;5219744;28;20062;-77
2022/10/06 05:48:08;;;;;;;17.98;9.10;;;8.90;99.90;;;;;;5198353;28;20022;-76
2022/10/06 05:50:42;;;;;;;11.88;8.45;;;9.00;99.90;;;;;;5220193;28;20028;-77
2022/10/06 05:53:15;;;;;;;11.98;7.80;;;9.10;99.90;;;;;;5225804;28;20218;-76
2022/10/06 05:55:46;;;;;;;14.50;8.93;;;9.30;99.90;;;;;;5206849;28;20062;-76
2022/10/06 05:58:17;;;;;;;12.32;9.05;;;9.50;99.90;;;;;;5190100;28;20412;-76
2022/10/06 06:00:54;;;;;;;10.98;8.82;;;9.60;99.90;;;;;;5224278;28;20029;-76
2022/10/06 06:03:25;;;;;;;16.63;10.85;;;9.80;99.90;;;;;;5246521;28;20075;-76
2022/10/06 06:05:57;;;;;;;18.52;11.05;;;10.20;99.90;;;;;;5215677;28;20054;-76
2022/10/06 06:08:28;;;;;;;13.63;9.45;;;10.40;99.90;;;;;;5203278;28;20032;-78
2022/10/06 06:11:09;;;;;;;15.20;10.30;;;10.60;99.90;;;;;;5222698;28;20366;-79
2022/10/06 06:13:43;;;;;;;15.68;10.25;;;10.90;99.90;;;;;;5222146;28;20025;-76
2022/10/06 06:16:17;;;;;;;13.45;8.48;;;11.10;99.90;;;;;;5210835;28;20040;-76
2022/10/06 06:18:49;;;;;;;11.80;8.65;;;11.20;99.90;;;;;;5193621;28;20205;-77
2022/10/06 06:21:20;;;;;;;13.02;9.07;;;11.30;99.90;;;;;;5211905;28;20037;-76
2022/10/06 06:23:52;;;;;;;10.68;7.82;;;11.40;99.90;;;;;;5188561;28;20033;-77
2022/10/06 06:26:32;;;;;;;9.48;7.15;;;11.70;99.90;;;;;;5202902;28;20020;-77
2022/10/06 06:29:05;;;;;;;11.23;6.82;;;11.90;99.90;;;;;;5210594;28;20037;-77
2022/10/06 06:31:42;;;;;;;10.40;7.07;;;12.00;99.90;;;;;;5219161;28;20021;-77
2022/10/06 06:34:13;;;;;;;9.90;6.78;;;12.20;99.90;;;;;;5227903;28;20067;-77
2022/10/06 06:36:47;;;;;;;13.32;6.82;;;12.30;99.90;;;;;;5220917;28;20025;-76
2022/10/06 06:39:20;;;;;;;7.80;6.40;;;12.50;99.90;;;;;;5214182;28;20440;-77
2022/10/06 06:41:54;;;;;;;10.00;6.45;;;12.70;99.90;;;;;;5202438;28;20264;-80
2022/10/06 06:44:28;;;;;;;11.55;6.35;;;12.80;99.90;;;;;;5207896;28;20048;-79
2022/10/06 06:47:00;;;;;;;7.28;5.80;;;13.00;99.90;;;;;;5216523;28;20041;-77
2022/10/06 06:49:34;;;;;;;16.23;6.30;;;13.20;99.90;;;;;;5199824;28;20025;-77
2022/10/06 06:52:05;;;;;;;8.32;7.03;;;13.50;99.90;;;;;;5200318;28;20747;-77
2022/10/06 06:54:39;;;;;;;9.13;6.03;;;13.70;99.90;;;;;;5195957;28;20410;-77
2022/10/06 06:57:15;;;;;;;9.43;6.55;;;13.80;99.90;;;;;;5176712;28;20037;-78
2022/10/06 06:59:46;;;;;;;8.27;5.95;;;13.80;99.90;;;;;;5198020;28;20029;-76
2022/10/06 07:02:18;;;;;;;9.45;5.95;;;14.10;99.90;;;;;;5223687;28;20033;-77
2022/10/06 07:04:52;;;;;;;11.27;6.30;;;14.40;99.90;;;;;;5177746;28;20053;-76
2022/10/06 07:07:23;;;;;;;9.57;5.90;;;14.70;99.90;;;;;;5195774;28;20037;-76
2022/10/06 07:09:57;;;;;;;9.50;6.45;;;15.00;99.90;;;;;;5223717;28;20027;-78
2022/10/06 07:27:02;;;;;;;9.90;5.70;;;16.80;99.90;;;;;;5236357;28;20287;-62
2022/10/06 07:29:36;;;;;;;6.30;5.07;;;17.10;99.90;;;;;;5260862;28;20034;-63
2022/10/06 07:32:09;;;;;;;7.50;5.63;;;17.50;99.90;;;;;;5243987;28;20028;-64
2022/10/06 07:34:48;;;;;;;12.48;6.13;;;17.50;99.90;;;;;;5240584;28;20036;-64
2022/10/06 07:37:28;;;;;;;9.93;5.97;;;17.90;99.90;;;;;;5241657;28;20248;-64
2022/10/06 07:40:10;;;;;;;11.90;5.28;;;17.70;99.90;;;;;;5258197;28;20222;-65
2022/10/06 07:42:50;;;;;;;10.10;5.35;;;18.00;99.90;;;;;;5261141;28;20018;-64
2022/10/06 07:45:44;;;;;;;5.70;4.95;;;18.30;99.90;;;;;;5254169;28;20311;-64
2022/10/06 07:48:22;;;;;;;3.40;2.92;;;18.60;99.90;;;;;;5247686;28;20213;-65
2022/10/06 07:50:53;;;;;;;5.75;3.97;;;18.80;99.90;;;;;;5244378;28;20554;-66
2022/10/06 07:53:27;;;;;;;7.18;4.10;;;19.20;99.90;;;;;;5251338;28;20033;-65
2022/10/06 07:56:04;;;;;;;6.28;4.25;;;19.50;99.90;;;;;;5228762;28;20028;-66
2022/10/06 07:58:38;;;;;;;4.75;3.90;;;19.60;99.90;;;;;;5255217;28;20026;-65
2022/10/06 08:01:17;;;;;;;3.30;2.85;;;20.00;99.90;;;;;;5252809;28;20018;-68
2022/10/06 08:03:56;;;;;;;4.63;2.03;;;20.30;99.90;;;;;;5254240;28;20036;-66
2022/10/06 08:06:37;;;;;;;3.88;1.90;;;20.30;99.90;;;;;;5223835;28;20253;-65
2022/10/06 08:09:08;;;;;;;4.13;1.60;;;20.40;99.90;;;;;;5187860;28;20044;-64
2022/10/06 08:11:40;;;;;;;7.43;1.40;;;20.50;99.90;;;;;;5222327;28;20204;-63
2022/10/06 08:14:13;;;;;;;1.60;1.50;;;20.70;99.90;;;;;;5176456;28;20044;-65
2022/10/06 08:16:45;;;;;;;1.65;1.52;;;20.70;99.90;;;;;;5221518;28;20087;-65
2022/10/06 08:19:20;;;;;;;3.75;1.73;;;20.80;99.90;;;;;;5190556;28;20199;-65
2022/10/06 08:21:54;;;;;;;1.85;1.40;;;20.80;99.90;;;;;;5189413;28;20175;-65
2022/10/06 08:24:34;;;;;;;1.40;1.30;;;21.00;99.90;;;;;;5188840;28;20223;-66
2022/10/06 08:27:10;;;;;;;1.60;1.50;;;21.00;99.90;;;;;;5177068;28;20033;-67
2022/10/06 08:29:44;;;;;;;1.73;1.63;;;21.20;99.90;;;;;;5176583;28;20443;-67
2022/10/06 08:32:18;;;;;;;5.75;2.03;;;21.40;99.90;;;;;;5178468;28;20342;-64
2022/10/06 08:34:54;;;;;;;2.30;1.23;;;21.60;99.90;;;;;;5228955;28;20306;-65
2022/10/06 08:37:28;;;;;;;3.72;1.40;;;21.50;99.90;;;;;;5197603;28;20237;-65
2022/10/06 08:40:07;;;;;;;4.03;1.35;;;21.70;99.90;;;;;;5196820;28;20101;-66
2022/10/06 08:43:04;;;;;;;2.42;1.60;;;21.80;99.90;;;;;;5175934;28;20306;-66
2022/10/06 08:45:47;;;;;;;1.35;1.20;;;22.20;99.90;;;;;;5177355;28;20034;-65
2022/10/06 08:48:25;;;;;;;1.80;1.35;;;22.10;99.90;;;;;;5177311;28;20352;-65
2022/10/06 08:51:28;;;;;;;2.60;1.70;;;21.90;99.90;;;;;;5176454;28;20020;-67
2022/10/06 08:54:20;;;;;;;1.55;1.45;;;21.80;99.90;;;;;;5175803;28;20348;-64
2022/10/06 08:57:17;;;;;;;1.75;1.35;;;21.80;99.90;;;;;;5207731;28;20037;-66
2022/10/06 08:59:52;;;;;;;1.67;1.58;;;21.70;99.90;;;;;;5196536;28;20022;-62
2022/10/06 09:02:33;;;;;;;2.80;1.60;;;21.80;99.90;;;;;;5209796;28;20025;-64
2022/10/06 09:05:10;;;;;;;3.15;1.50;;;21.60;99.90;;;;;;5160391;28;20046;-64
2022/10/06 09:08:11;;;;;;;1.58;1.48;;;21.60;99.90;;;;;;5171942;28;20028;-64
2022/10/06 09:11:16;;;;;;;3.35;1.77;;;21.70;99.90;;;;;;5159056;28;20030;-65
2022/10/06 09:14:05;;;;;;;2.27;1.60;;;21.70;99.90;;;;;;5160273;28;20200;-67
2022/10/06 09:16:47;;;;;;;2.15;1.42;;;22.00;99.90;;;;;;5155388;28;20037;-63
2022/10/06 09:19:42;;;;;;;1.50;1.40;;;22.00;99.90;;;;;;5185792;28;20040;-67
2022/10/06 09:22:19;;;;;;;1.35;1.25;;;22.00;99.90;;;;;;5155712;28;20026;-66
2022/10/06 09:24:56;;;;;;;1.63;1.42;;;22.10;99.90;;;;;;5156064;28;20298;-66
2022/10/06 09:27:36;;;;;;;2.05;1.70;;;22.20;99.90;;;;;;5154632;28;20243;-67
2022/10/06 09:30:11;;;;;;;3.67;1.50;;;21.90;99.90;;;;;;5154879;28;20033;-64
2022/10/06 09:32:46;;;;;;;1.77;1.33;;;22.30;99.90;;;;;;5167911;28;20042;-65
2022/10/06 09:35:27;;;;;;;4.75;1.50;;;22.20;99.90;;;;;;5153365;28;20373;-67
2022/10/06 09:38:03;;;;;;;3.53;1.60;;;22.50;99.90;;;;;;5154481;28;20026;-64
2022/10/06 09:40:47;;;;;;;1.77;1.33;;;22.40;99.90;;;;;;5182365;28;20030;-63
2022/10/06 09:43:35;;;;;;;1.52;1.42;;;22.40;99.90;;;;;;5158928;28;20226;-65
2022/10/06 09:46:33;;;;;;;1.63;1.48;;;22.60;99.90;;;;;;5169736;28;20030;-63
2022/10/06 09:49:30;;;;;;;2.90;1.75;;;23.00;99.90;;;;;;5171896;28;20112;-65
2022/10/06 09:52:16;;;;;;;1.85;1.40;;;22.90;99.90;;;;;;5156683;28;20010;-65
2022/10/06 09:55:13;;;;;;;2.25;1.38;;;23.10;99.90;;;;;;5152848;28;20041;-66
2022/10/06 09:57:49;;;;;;;1.58;1.48;;;23.20;99.90;;;;;;5154945;28;20037;-65
2022/10/06 10:00:43;;;;;;;4.03;1.50;;;23.40;99.90;;;;;;5153790;28;20204;-64
2022/10/06 10:03:25;;;;;;;1.77;1.40;;;23.60;99.90;;;;;;5156667;28;20048;-65
2022/10/06 10:06:01;;;;;;;2.30;1.23;;;23.50;99.90;;;;;;5160757;28;20350;-66
2022/10/06 10:08:32;;;;;;;1.98;1.30;;;23.90;99.90;;;;;;5156301;28;20289;-65
2022/10/06 10:14:15;;;;;;;3.23;1.40;;;24.80;99.90;;;;;;5153041;28;20584;-64
2022/10/06 10:16:52;;;;;;;4.43;1.77;;;25.50;99.90;;;;;;5152094;28;20089;-66
2022/10/06 10:19:35;;;;;;;2.35;1.63;;;25.00;99.90;;;;;;5154053;28;20022;-64
2022/10/06 10:22:23;;;;;;;3.63;1.85;;;24.70;99.90;;;;;;5152327;28;20331;-63
2022/10/06 10:25:16;;;;;;;2.67;1.67;;;24.70;99.90;;;;;;5167875;28;20018;-65
2022/10/06 10:27:57;;;;;;;2.00;1.63;;;24.70;99.90;;;;;;5154206;28;20018;-65
2022/10/06 10:30:35;;;;;;;1.27;1.17;;;25.00;99.90;;;;;;5152063;28;20026;-63
2022/10/06 10:33:14;;;;;;;5.20;1.73;;;25.10;99.90;;;;;;5150299;28;20280;-66
2022/10/06 10:35:51;;;;;;;4.22;1.65;;;25.80;99.90;;;;;;5153213;28;20040;-65
2022/10/06 10:38:25;;;;;;;1.95;1.40;;;25.10;99.90;;;;;;5153394;28;20036;-67
2022/10/06 10:41:24;;;;;;;1.60;1.25;;;25.00;99.90;;;;;;5168141;28;20038;-64
2022/10/06 10:44:08;;;;;;;1.50;1.40;;;25.80;99.90;;;;;;5154527;28;20018;-64
2022/10/06 10:46:58;;;;;;;2.55;1.42;;;25.50;99.90;;;;;;5147149;28;20369;-65
2022/10/06 10:49:30;;;;;;;1.75;1.45;;;25.50;99.90;;;;;;5162379;28;20265;-65
2022/10/06 10:52:13;;;;;;;1.98;1.75;;;25.60;99.90;;;;;;5133334;28;20242;-64
2022/10/06 10:54:54;;;;;;;3.92;1.60;;;25.50;99.90;;;;;;5139136;28;20033;-65
2022/10/06 10:57:34;;;;;;;1.67;1.40;;;25.20;99.90;;;;;;5150951;28;20022;-65
2022/10/06 11:00:34;;;;;;;3.38;1.45;;;25.40;99.90;;;;;;5135818;28;20026;-64
2022/10/06 11:03:09;;;;;;;1.60;1.40;;;25.70;99.90;;;;;;5151749;28;20038;-62
2022/10/06 11:05:41;;;;;;;6.53;1.40;;;26.20;99.90;;;;;;5171309;28;20051;-65
2022/10/06 11:08:13;;;;;;;1.83;1.50;;;27.00;99.90;;;;;;5180966;28;20013;-66
2022/10/06 11:11:00;;;;;;;2.97;1.70;;;26.60;99.90;;;;;;5204908;28;20422;-64
2022/10/06 11:13:40;;;;;;;2.03;1.40;;;26.80;99.90;;;;;;5136161;28;20335;-63
2022/10/06 11:16:45;;;;;;;2.38;1.50;;;25.80;99.90;;;;;;5161111;28;20161;-65
2022/10/06 11:20:07;;;;;;;4.88;1.50;;;25.70;99.90;;;;;;5171047;28;20172;-65
2022/10/06 11:22:54;;;;;;;2.20;1.70;;;25.70;99.90;;;;;;5154136;28;20399;-66
2022/10/06 11:25:56;;;;;;;3.85;1.70;;;25.50;99.90;;;;;;5173870;28;20225;-67
2022/10/06 11:28:41;;;;;;;2.63;1.70;;;24.90;99.90;;;;;;5174592;28;20030;-65
2022/10/06 11:31:33;;;;;;;2.72;1.40;;;24.70;99.90;;;;;;5174889;28;20034;-65
2022/10/06 11:34:07;;;;;;;7.28;1.48;;;25.50;99.90;;;;;;5172656;28;20029;-67
2022/10/06 11:37:13;;;;;;;3.42;1.80;;;26.50;99.90;;;;;;5169863;28;20306;-65
2022/10/06 11:40:19;;;;;;;4.40;1.67;;;27.40;99.90;;;;;;5176182;28;20199;-65
2022/10/06 11:43:07;;;;;;;2.97;1.63;;;27.80;99.90;;;;;;5171526;28;20037;-64
2022/10/06 11:45:52;;;;;;;4.13;1.50;;;26.90;99.90;;;;;;5174010;28;20030;-66
2022/10/06 11:48:29;;;;;;;1.63;1.50;;;27.00;99.90;;;;;;5171900;28;20324;-69
2022/10/06 11:51:29;;;;;;;5.65;2.38;;;27.70;99.90;;;;;;5204804;28;20034;-65
2022/10/06 11:54:06;;;;;;;2.17;1.50;;;27.20;99.90;;;;;;5167198;28;20037;-65
2022/10/06 11:56:39;;;;;;;1.50;1.40;;;26.70;99.90;;;;;;5172646;28;20348;-65
2022/10/06 11:59:22;;;;;;;5.68;2.17;;;26.40;99.90;;;;;;5174124;28;20277;-65
2022/10/06 12:01:59;;;;;;;2.75;1.30;;;26.10;99.90;;;;;;5175602;28;20029;-64
2022/10/06 12:04:31;;;;;;;3.80;1.98;;;26.70;99.90;;;;;;5171032;28;20046;-64
2022/10/06 12:07:05;;;;;;;4.18;1.65;;;26.10;99.90;;;;;;5186800;28;20329;-64
2022/10/06 12:09:45;;;;;;;5.32;1.95;;;25.50;99.90;;;;;;5192006;28;20057;-66
2022/10/06 12:12:19;;;;;;;4.63;1.45;;;24.80;99.90;;;;;;5178100;28;20477;-64
2022/10/06 12:15:11;;;;;;;2.95;1.60;;;24.00;99.90;;;;;;5192255;28;20044;-64
2022/10/06 12:17:53;;;;;;;2.75;2.15;;;23.90;99.90;;;;;;5176238;28;20021;-65
2022/10/06 12:20:52;;;;;;;2.35;1.70;;;24.90;99.90;;;;;;5177673;28;20344;-67
2022/10/06 12:23:48;;;;;;;3.50;2.00;;;26.20;99.90;;;;;;5176193;28;20198;-65
2022/10/06 12:26:19;;;;;;;1.63;1.52;;;27.00;99.90;;;;;;5176215;28;20036;-66
2022/10/06 12:29:16;;;;;;;3.42;1.58;;;27.20;99.90;;;;;;5176876;28;20022;-66
2022/10/06 12:32:01;;;;;;;2.83;1.58;;;27.10;99.90;;;;;;5167290;28;20025;-64
2022/10/06 12:34:38;;;;;;;1.35;1.25;;;27.20;99.90;;;;;;5177414;28;20018;-65
2022/10/06 12:37:31;;;;;;;2.58;1.30;;;26.30;99.90;;;;;;5194655;28;20226;-64
2022/10/06 12:40:39;;;;;;;3.85;1.48;;;25.30;99.90;;;;;;5203646;28;20056;-65
2022/10/06 12:43:16;;;;;;;3.28;1.65;;;25.20;99.90;;;;;;5176219;28;20018;-64
2022/10/06 12:46:07;;;;;;;3.67;1.10;;;25.00;99.90;;;;;;5176838;28;20048;-64
2022/10/06 12:49:05;;;;;;;3.13;2.35;;;24.70;99.90;;;;;;5172271;28;20211;-64
2022/10/06 12:51:42;;;;;;;2.45;2.10;;;25.20;99.90;;;;;;5176951;28;20030;-64
2022/10/06 12:54:26;;;;;;;7.68;1.63;;;25.00;99.90;;;;;;5178247;28;20022;-65
2022/10/06 12:57:04;;;;;;;;;;;24.80;99.90;;;;;;5176881;28;20030;-66
2022/10/06 12:59:40;;;;;;;4.50;2.00;;;24.60;99.90;;;;;;5176857;28;20087;-64
2022/10/06 13:02:20;;;;;;;2.60;1.83;;;24.10;99.90;;;;;;5170425;28;20107;-64
2022/10/06 13:05:02;;;;;;;3.92;1.90;;;23.80;99.90;;;;;;5176587;28;20802;-64
2022/10/06 13:07:57;;;;;;;6.03;1.80;;;23.80;99.90;;;;;;5213425;28;20340;-65
2022/10/06 13:10:32;;;;;;;3.22;1.60;;;23.80;99.90;;;;;;5175479;28;20029;-63
2022/10/06 13:13:22;;;;;;;;;;;23.60;99.90;;;;;;5172718;28;20026;-65
2022/10/06 13:15:59;;;;;;;4.97;1.73;;;23.30;99.90;;;;;;5176752;28;19909;-63
2022/10/06 13:18:33;;;;;;;3.97;1.70;;;23.30;99.90;;;;;;5173012;28;20038;-64
2022/10/06 13:21:14;;;;;;;6.32;1.80;;;23.60;99.90;;;;;;5167646;28;20034;-63
2022/10/06 13:23:48;;;;;;;4.70;1.63;;;24.10;99.90;;;;;;5172165;28;20038;-64
2022/10/06 13:26:29;;;;;;;4.13;1.77;;;24.00;99.90;;;;;;5175623;28;20036;-65
2022/10/06 13:29:00;;;;;;;8.52;1.85;;;23.80;99.90;;;;;;5174212;28;20022;-64
2022/10/06 13:31:35;;;;;;;3.42;1.50;;;23.90;99.90;;;;;;5176879;28;20052;-66
2022/10/06 13:34:16;;;;;;;3.55;1.45;;;23.60;99.90;;;;;;5190464;28;20032;-65
2022/10/06 13:36:54;;;;;;;2.88;1.98;;;23.60;99.90;;;;;;5205808;28;20298;-64
2022/10/06 13:39:30;;;;;;;3.33;1.80;;;23.70;99.90;;;;;;5193289;28;20028;-65
2022/10/06 13:42:09;;;;;;;5.35;1.65;;;24.20;99.90;;;;;;5175276;28;20030;-63
2022/10/06 13:44:48;;;;;;;3.45;2.00;;;23.80;99.90;;;;;;5174914;28;20318;-65
2022/10/06 13:47:28;;;;;;;2.35;1.65;;;23.50;99.90;;;;;;5204804;28;20028;-64
2022/10/06 13:50:04;;;;;;;4.72;1.65;;;23.50;99.90;;;;;;5171878;28;20037;-64
2022/10/06 13:52:38;;;;;;;4.80;2.13;;;23.80;99.90;;;;;;5168017;28;20242;-64
2022/10/06 13:55:24;;;;;;;5.80;2.10;;;24.10;99.90;;;;;;5173477;28;20270;-65
2022/10/06 13:58:01;;;;;;;1.88;1.30;;;24.70;99.90;;;;;;5175180;28;20131;-65
2022/10/06 14:00:45;;;;;;;3.25;2.25;;;25.10;99.90;;;;;;5173409;28;20032;-65
2022/10/06 14:03:32;;;;;;;4.72;1.95;;;24.70;99.90;;;;;;5171257;28;20044;-64